createdAt,value
2019-06-15T00:00:14.536Z,59.79
2019-06-15T00:00:55.083Z,59.4
2019-06-15T00:01:35.636Z,59.4
2019-06-15T00:02:16.211Z,59.31
2019-06-15T00:02:56.769Z,59.5
2019-06-15T00:03:37.349Z,60.08
2019-06-15T00:04:17.904Z,59.79
2019-06-15T00:04:58.537Z,59.69
2019-06-15T00:05:39.107Z,60.08
2019-06-15T00:06:19.684Z,60.27
2019-06-15T00:07:00.251Z,59.98
2019-06-15T00:07:40.836Z,60.08
2019-06-15T00:08:21.430Z,60.08
2019-06-15T00:09:02.002Z,60.17
2019-06-15T00:09:42.591Z,60.27
2019-06-15T00:10:23.159Z,59.98
2019-06-15T00:11:03.744Z,60.17
2019-06-15T00:11:44.314Z,60.57
2019-06-15T00:12:24.891Z,60.57
2019-06-15T00:13:05.452Z,60.57
2019-06-15T00:13:46.053Z,60.75
2019-06-15T00:14:26.630Z,61.05
2019-06-15T00:15:07.219Z,60.85
2019-06-15T00:15:47.810Z,60.75
2019-06-15T00:16:28.376Z,61.24
2019-06-15T00:17:08.947Z,61.05
2019-06-15T00:17:52.206Z,61.24
2019-06-15T00:18:32.785Z,61.15
2019-06-15T00:19:13.332Z,61.15
2019-06-15T00:19:53.934Z,61.24
2019-06-15T00:20:34.771Z,60.95
2019-06-15T00:21:15.346Z,61.15
2019-06-15T00:21:55.898Z,61.33
2019-06-15T00:22:36.473Z,61.05
2019-06-15T00:23:17.036Z,61.15
2019-06-15T00:23:57.606Z,61.53
2019-06-15T00:24:38.176Z,61.63
2019-06-15T00:25:18.762Z,61.63
2019-06-15T00:25:59.330Z,61.72
2019-06-15T00:26:39.919Z,61.82
2019-06-15T00:27:20.486Z,61.72
2019-06-15T00:28:01.065Z,61.72
2019-06-15T00:28:41.660Z,61.72
2019-06-15T00:29:22.211Z,61.72
2019-06-15T00:30:03.635Z,61.63
2019-06-15T00:30:44.199Z,61.82
2019-06-15T00:31:24.753Z,61.63
2019-06-15T00:32:05.345Z,62.3
2019-06-15T00:32:45.916Z,62.01
2019-06-15T00:33:26.477Z,62.21
2019-06-15T00:34:07.036Z,62.3
2019-06-15T00:34:47.604Z,62.5
2019-06-15T00:35:28.174Z,62.27
2019-06-15T00:36:08.733Z,62.3
2019-06-15T00:36:49.283Z,62.4
2019-06-15T00:37:29.867Z,62.37
2019-06-15T00:38:10.453Z,62.79
2019-06-15T00:38:50.991Z,62.79
2019-06-15T00:39:31.555Z,62.88
2019-06-15T00:40:12.104Z,62.95
2019-06-15T00:40:52.717Z,62.59
2019-06-15T00:41:33.255Z,62.66
2019-06-15T00:42:13.814Z,62.66
2019-06-15T00:42:54.373Z,62.66
2019-06-15T00:43:34.972Z,62.98
2019-06-15T00:44:15.536Z,62.98
2019-06-15T00:44:56.112Z,62.69
2019-06-15T00:45:36.692Z,62.69
2019-06-15T00:46:17.309Z,62.98
2019-06-15T00:46:57.843Z,63.08
2019-06-15T00:47:38.417Z,62.69
2019-06-15T00:48:18.986Z,63.56
2019-06-15T00:48:59.604Z,63.37
2019-06-15T00:49:40.165Z,62.88
2019-06-15T00:50:20.728Z,63.08
2019-06-15T00:51:01.311Z,63.18
2019-06-15T00:51:41.873Z,63.18
2019-06-15T00:52:22.444Z,63.18
2019-06-15T00:53:03.024Z,63.27
2019-06-15T00:53:43.574Z,63.76
2019-06-15T00:54:24.152Z,63.08
2019-06-15T00:55:04.721Z,63.27
2019-06-15T00:55:45.276Z,63.63
2019-06-15T00:56:25.849Z,63.66
2019-06-15T00:57:06.444Z,63.53
2019-06-15T00:57:47.018Z,63.53
2019-06-15T00:58:27.588Z,63.56
2019-06-15T00:59:08.160Z,63.46
2019-06-15T00:59:48.781Z,63.37
2019-06-15T01:00:29.308Z,64.11
2019-06-15T01:01:09.878Z,63.34
2019-06-15T01:01:50.445Z,64.11
2019-06-15T01:02:31.016Z,64.14
2019-06-15T01:03:11.597Z,63.82
2019-06-15T01:03:52.176Z,63.73
2019-06-15T01:04:32.760Z,63.85
2019-06-15T01:05:13.314Z,63.85
2019-06-15T01:05:53.899Z,63.56
2019-06-15T01:06:34.455Z,64.11
2019-06-15T01:07:15.040Z,63.24
2019-06-15T01:07:55.610Z,63.34
2019-06-15T01:08:36.174Z,63.34
2019-06-15T01:09:16.735Z,64.11
2019-06-15T01:09:57.324Z,63.63
2019-06-15T01:10:37.936Z,63.92
2019-06-15T01:11:18.533Z,64.11
2019-06-15T01:11:59.105Z,63.63
2019-06-15T01:12:39.678Z,64.01
2019-06-15T01:13:20.280Z,63.92
2019-06-15T01:14:00.831Z,64.01
2019-06-15T01:14:41.404Z,63.92
2019-06-15T01:15:21.959Z,64.01
2019-06-15T01:16:02.538Z,64.11
2019-06-15T01:16:43.103Z,63.92
2019-06-15T01:17:23.667Z,64.21
2019-06-15T01:18:04.261Z,64.21
2019-06-15T01:18:44.834Z,64.5
2019-06-15T01:19:25.495Z,64.4
2019-06-15T01:20:06.224Z,64.21
2019-06-15T01:20:46.804Z,65.08
2019-06-15T01:21:27.354Z,64.69
2019-06-15T01:22:07.914Z,64.79
2019-06-15T01:22:48.477Z,64.69
2019-06-15T01:23:29.053Z,64.4
2019-06-15T01:24:09.621Z,64.89
2019-06-15T01:25:02.455Z,64.98
2019-06-15T01:25:30.777Z,64.69
2019-06-15T01:26:11.343Z,64.89
2019-06-15T01:26:51.919Z,64.89
2019-06-15T01:27:32.487Z,65.08
2019-06-15T01:28:13.039Z,64.89
2019-06-15T01:28:53.611Z,64.98
2019-06-15T01:29:34.170Z,64.69
2019-06-15T01:30:14.750Z,64.89
2019-06-15T01:30:55.308Z,64.59
2019-06-15T01:31:35.870Z,64.59
2019-06-15T01:32:16.426Z,64.98
2019-06-15T01:32:56.997Z,64.98
2019-06-15T01:33:37.574Z,65.47
2019-06-15T01:34:18.148Z,65.27
2019-06-15T01:34:58.721Z,64.98
2019-06-15T01:35:39.276Z,65.27
2019-06-15T01:36:19.855Z,65.27
2019-06-15T01:37:00.443Z,65.47
2019-06-15T01:37:41.007Z,65.47
2019-06-15T01:38:21.583Z,65.27
2019-06-15T01:39:02.161Z,65.66
2019-06-15T01:39:42.738Z,65.47
2019-06-15T01:40:23.299Z,65.56
2019-06-15T01:41:03.873Z,65.47
2019-06-15T01:41:44.433Z,65.37
2019-06-15T01:42:24.994Z,65.37
2019-06-15T01:43:05.569Z,65.37
2019-06-15T01:43:46.169Z,65.56
2019-06-15T01:44:26.742Z,65.56
2019-06-15T01:45:07.341Z,65.27
2019-06-15T01:45:47.903Z,65.66
2019-06-15T01:46:28.463Z,65.37
2019-06-15T01:47:09.033Z,65.56
2019-06-15T01:47:49.624Z,65.56
2019-06-15T01:48:30.208Z,65.66
2019-06-15T01:49:10.775Z,66.14
2019-06-15T01:49:51.345Z,66.14
2019-06-15T01:50:31.924Z,65.95
2019-06-15T01:51:12.493Z,65.95
2019-06-15T01:51:53.057Z,66.14
2019-06-15T01:52:33.608Z,65.95
2019-06-15T01:53:14.165Z,66.14
2019-06-15T01:53:54.720Z,66.14
2019-06-15T01:54:35.296Z,66.14
2019-06-15T01:55:20.741Z,65.95
2019-06-15T01:55:56.425Z,65.85
2019-06-15T01:56:36.987Z,66.14
2019-06-15T01:57:17.556Z,65.95
2019-06-15T01:57:58.126Z,66.14
2019-06-15T01:58:38.695Z,66.33
2019-06-15T01:59:19.264Z,65.95
2019-06-15T01:59:59.831Z,66.4
2019-06-15T02:00:40.427Z,65.85
2019-06-15T02:01:21.017Z,66.14
2019-06-15T02:02:01.591Z,66.2
2019-06-15T02:02:42.169Z,66.33
2019-06-15T02:03:22.742Z,66.24
2019-06-15T02:04:03.315Z,66.63
2019-06-15T02:04:43.891Z,66.59
2019-06-15T02:05:24.453Z,66.63
2019-06-15T02:06:05.014Z,66.53
2019-06-15T02:06:45.580Z,66.43
2019-06-15T02:07:26.138Z,66.72
2019-06-15T02:08:06.737Z,66.53
2019-06-15T02:08:47.273Z,66.82
2019-06-15T02:09:27.861Z,67.01
2019-06-15T02:10:08.444Z,67.21
2019-06-15T02:10:49.040Z,66.88
2019-06-15T02:11:29.612Z,67.08
2019-06-15T02:12:10.168Z,66.91
2019-06-15T02:12:50.739Z,66.91
2019-06-15T02:13:31.323Z,66.91
2019-06-15T02:14:11.871Z,66.82
2019-06-15T02:14:52.446Z,66.72
2019-06-15T02:15:33.032Z,66.82
2019-06-15T02:16:13.602Z,66.72
2019-06-15T02:16:54.195Z,66.53
2019-06-15T02:17:34.759Z,67.01
2019-06-15T02:18:15.322Z,66.91
2019-06-15T02:18:55.921Z,67.01
2019-06-15T02:19:36.497Z,67.21
2019-06-15T02:20:17.079Z,67.3
2019-06-15T02:20:57.658Z,67.3
2019-06-15T02:21:38.242Z,67.4
2019-06-15T02:22:18.835Z,67.27
2019-06-15T02:22:59.385Z,67.66
2019-06-15T02:23:39.963Z,67.59
2019-06-15T02:24:20.530Z,67.59
2019-06-15T02:25:01.079Z,67.79
2019-06-15T02:25:41.625Z,67.69
2019-06-15T02:26:22.191Z,67.69
2019-06-15T02:27:02.813Z,67.85
2019-06-15T02:27:43.358Z,68.08
2019-06-15T02:28:23.930Z,67.88
2019-06-15T02:29:04.493Z,67.88
2019-06-15T02:29:45.057Z,67.98
2019-06-15T02:30:25.631Z,67.98
2019-06-15T02:31:06.196Z,68.24
2019-06-15T02:31:46.771Z,67.94
2019-06-15T02:32:27.353Z,68.33
2019-06-15T02:33:07.917Z,68.14
2019-06-15T02:33:48.485Z,68.14
2019-06-15T02:34:29.072Z,68.33
2019-06-15T02:35:09.617Z,68.04
2019-06-15T02:35:50.178Z,68.14
2019-06-15T02:36:30.741Z,68.14
2019-06-15T02:37:11.345Z,68.33
2019-06-15T02:37:51.922Z,67.75
2019-06-15T02:38:32.507Z,67.75
2019-06-15T02:39:13.085Z,67.94
2019-06-15T02:39:53.625Z,68.24
2019-06-15T02:40:34.199Z,68.14
2019-06-15T02:41:14.783Z,68.24
2019-06-15T02:41:55.343Z,67.94
2019-06-15T02:42:35.899Z,68.14
2019-06-15T02:43:16.480Z,68.33
2019-06-15T02:43:57.048Z,68.43
2019-06-15T02:44:37.610Z,68.82
2019-06-15T02:45:18.174Z,68.72
2019-06-15T02:45:58.732Z,68.82
2019-06-15T02:46:39.311Z,68.62
2019-06-15T02:47:19.865Z,68.43
2019-06-15T02:48:00.462Z,68.91
2019-06-15T02:48:41.017Z,68.72
2019-06-15T02:49:21.595Z,68.91
2019-06-15T02:50:02.274Z,68.72
2019-06-15T02:50:42.781Z,68.62
2019-06-15T02:51:23.348Z,68.43
2019-06-15T02:52:03.917Z,69.1
2019-06-15T02:52:44.489Z,69.1
2019-06-15T02:53:25.042Z,69.2
2019-06-15T02:54:05.613Z,69.1
2019-06-15T02:54:46.213Z,69.59
2019-06-15T02:55:26.756Z,69.01
2019-06-15T02:56:07.301Z,69.49
2019-06-15T02:56:47.871Z,69.88
2019-06-15T02:57:28.440Z,69.88
2019-06-15T02:58:08.994Z,69.78
2019-06-15T02:58:49.561Z,69.88
2019-06-15T02:59:32.366Z,69.59
2019-06-15T03:00:11.108Z,69.59
2019-06-15T03:00:51.670Z,69.88
2019-06-15T03:01:32.245Z,69.78
2019-06-15T03:02:12.818Z,70.26
2019-06-15T03:02:53.406Z,70.36
2019-06-15T03:03:33.954Z,70.46
2019-06-15T03:04:14.509Z,70.56
2019-06-15T03:04:55.075Z,71.04
2019-06-15T03:05:35.647Z,71
2019-06-15T03:06:16.206Z,71.14
2019-06-15T03:06:56.783Z,71.23
2019-06-15T03:07:37.353Z,71.3
2019-06-15T03:08:17.906Z,71.3
2019-06-15T03:08:58.495Z,71.2
2019-06-15T03:09:39.062Z,71.2
2019-06-15T03:10:19.632Z,70.81
2019-06-15T03:11:00.194Z,71.58
2019-06-15T03:11:40.815Z,71.68
2019-06-15T03:12:21.338Z,71.78
2019-06-15T03:13:01.904Z,71.78
2019-06-15T03:13:42.481Z,71.58
2019-06-15T03:14:23.109Z,71.68
2019-06-15T03:15:03.667Z,71.68
2019-06-15T03:15:44.238Z,71.68
2019-06-15T03:16:24.796Z,71.39
2019-06-15T03:17:05.384Z,71.48
2019-06-15T03:17:45.962Z,71.97
2019-06-15T03:18:26.544Z,71.97
2019-06-15T03:19:07.096Z,71.88
2019-06-15T03:19:47.664Z,72.16
2019-06-15T03:20:28.495Z,72.16
2019-06-15T03:21:09.063Z,72.45
2019-06-15T03:21:49.637Z,72.26
2019-06-15T03:22:30.200Z,72.52
2019-06-15T03:23:10.784Z,73.03
2019-06-15T03:23:51.373Z,72.94
2019-06-15T03:24:31.935Z,72.94
2019-06-15T03:25:12.503Z,72.9
2019-06-15T03:26:04.556Z,73.09
2019-06-15T03:26:33.644Z,73.09
2019-06-15T03:27:14.194Z,73
2019-06-15T03:27:54.777Z,73.22
2019-06-15T03:28:35.356Z,73.48
2019-06-15T03:29:15.923Z,73.32
2019-06-15T03:29:56.485Z,73.32
2019-06-15T03:30:37.053Z,73.42
2019-06-15T03:31:17.610Z,73.42
2019-06-15T03:31:58.202Z,73.32
2019-06-15T03:32:38.767Z,73.8
2019-06-15T03:33:19.337Z,74
2019-06-15T03:33:59.918Z,73.61
2019-06-15T03:34:40.523Z,73.9
2019-06-15T03:35:21.104Z,73.9
2019-06-15T03:36:01.666Z,74.1
2019-06-15T03:36:42.248Z,74.38
2019-06-15T03:37:22.921Z,74.54
2019-06-15T03:38:03.491Z,74.93
2019-06-15T03:38:44.052Z,74.73
2019-06-15T03:39:24.633Z,74.54
2019-06-15T03:40:05.214Z,74.93
2019-06-15T03:40:45.819Z,75.02
2019-06-15T03:41:26.359Z,75.02
2019-06-15T03:42:07.076Z,75.12
2019-06-15T03:42:47.586Z,74.83
2019-06-15T03:46:01.521Z,75.22
2019-06-15T03:46:42.085Z,75.51
2019-06-15T03:47:22.675Z,75.41
2019-06-15T03:48:03.270Z,75.31
2019-06-15T03:48:43.816Z,75.6
2019-06-15T03:49:24.361Z,75.7
2019-06-15T03:50:04.911Z,75.99
2019-06-15T03:50:45.489Z,75.6
2019-06-15T03:51:26.091Z,75.79
2019-06-15T03:52:06.651Z,75.89
2019-06-15T03:52:47.218Z,75.7
2019-06-15T03:53:27.787Z,75.7
2019-06-15T03:54:08.424Z,75.79
2019-06-15T03:54:49.037Z,75.7
2019-06-15T03:55:29.582Z,76.18
2019-06-15T03:56:20.894Z,75.99
2019-06-15T03:56:50.707Z,75.99
2019-06-15T03:57:31.292Z,76.09
2019-06-15T03:58:11.852Z,76.18
2019-06-15T03:58:52.414Z,75.99
2019-06-15T03:59:32.983Z,75.99
2019-06-15T04:00:13.550Z,76.09
2019-06-15T04:00:54.148Z,75.99
2019-06-15T04:01:34.714Z,75.99
2019-06-15T04:02:15.288Z,75.99
2019-06-15T04:02:55.876Z,76.09
2019-06-15T04:03:36.447Z,75.99
2019-06-15T04:04:16.985Z,76.28
2019-06-15T04:04:57.550Z,76.18
2019-06-15T04:05:38.107Z,75.99
2019-06-15T04:08:36.943Z,76.03
2019-06-15T04:09:17.512Z,76.37
2019-06-15T04:09:58.085Z,75.99
2019-06-15T04:10:38.637Z,76.22
2019-06-15T04:11:19.200Z,75.99
2019-06-15T04:11:59.743Z,75.79
2019-06-15T04:12:40.318Z,76.57
2019-06-15T04:13:20.885Z,76.86
2019-06-15T04:14:01.470Z,76.57
2019-06-15T04:14:42.018Z,76.67
2019-06-15T04:15:22.593Z,76.57
2019-06-15T04:16:03.138Z,76.76
2019-06-15T04:16:43.741Z,76.67
2019-06-15T04:17:24.315Z,77.15
2019-06-15T04:18:04.884Z,77.05
2019-06-15T04:18:45.476Z,77.05
2019-06-15T04:19:26.078Z,77.05
2019-06-15T04:20:06.661Z,76.9
2019-06-15T04:20:47.237Z,77.34
2019-06-15T04:21:27.792Z,77.63
2019-06-15T04:22:08.345Z,77.34
2019-06-15T04:22:48.941Z,77.34
2019-06-15T04:23:29.514Z,77.44
2019-06-15T04:24:10.076Z,78.11
2019-06-15T04:24:50.656Z,77.92
2019-06-15T04:25:31.253Z,77.92
2019-06-15T04:26:11.813Z,77.83
2019-06-15T04:26:52.388Z,77.83
2019-06-15T04:27:32.944Z,77.73
2019-06-15T04:28:13.518Z,77.73
2019-06-15T04:28:54.091Z,77.73
2019-06-15T04:29:34.652Z,77.73
2019-06-15T04:30:15.218Z,77.83
2019-06-15T04:30:55.777Z,78.02
2019-06-15T04:31:39.217Z,77.83
2019-06-15T04:32:16.914Z,78.31
2019-06-15T04:32:57.501Z,78.59
2019-06-15T04:33:38.070Z,78.41
2019-06-15T04:34:18.630Z,78.31
2019-06-15T04:34:59.200Z,78.02
2019-06-15T04:38:13.115Z,78.89
2019-06-15T04:38:53.680Z,78.89
2019-06-15T04:39:34.272Z,78.89
2019-06-15T04:40:14.836Z,78.69
2019-06-15T04:40:55.417Z,78.99
2019-06-15T04:41:35.986Z,78.89
2019-06-15T04:42:16.540Z,78.69
2019-06-15T04:42:57.087Z,78.69
2019-06-15T04:43:37.648Z,78.79
2019-06-15T04:44:18.210Z,78.79
2019-06-15T04:44:58.781Z,78.69
2019-06-15T04:45:39.379Z,78.79
2019-06-15T04:46:19.945Z,78.92
2019-06-15T04:47:00.522Z,78.99
2019-06-15T04:47:41.083Z,78.99
2019-06-15T04:48:21.643Z,78.99
2019-06-15T04:49:02.316Z,79.02
2019-06-15T04:49:42.870Z,78.79
2019-06-15T04:50:23.543Z,79.08
2019-06-15T04:51:04.065Z,78.83
2019-06-15T04:51:44.629Z,78.92
2019-06-15T04:52:25.198Z,78.99
2019-06-15T04:53:05.754Z,78.79
2019-06-15T04:53:46.354Z,79.12
2019-06-15T04:54:26.918Z,78.89
2019-06-15T04:55:07.481Z,78.92
2019-06-15T04:55:48.068Z,78.69
2019-06-15T04:56:28.637Z,78.92
2019-06-15T04:57:09.195Z,78.73
2019-06-15T04:57:49.839Z,78.92
2019-06-15T04:58:30.384Z,78.92
2019-06-15T04:59:10.949Z,78.34
2019-06-15T04:59:51.516Z,78.54
2019-06-15T05:00:32.103Z,78.34
2019-06-15T05:01:12.664Z,78.54
2019-06-15T05:01:53.229Z,78.06
2019-06-15T05:02:33.795Z,78.15
2019-06-15T05:03:14.341Z,78.25
2019-06-15T05:03:54.902Z,78.34
2019-06-15T05:04:35.483Z,78.15
2019-06-15T05:05:16.065Z,78.34
2019-06-15T05:05:56.631Z,77.86
2019-06-15T05:06:37.198Z,77.86
2019-06-15T05:07:17.757Z,77.86
2019-06-15T05:07:58.334Z,77.86
2019-06-15T05:08:38.920Z,77.86
2019-06-15T05:09:19.497Z,77.86
2019-06-15T05:12:18.329Z,77.09
2019-06-15T05:12:58.869Z,77.22
2019-06-15T05:13:39.510Z,76.8
2019-06-15T05:14:19.989Z,77.03
2019-06-15T05:15:00.549Z,76.45
2019-06-15T05:15:41.107Z,76.93
2019-06-15T05:16:21.670Z,76.84
2019-06-15T05:17:02.286Z,76.74
2019-06-15T05:17:45.484Z,76.74
2019-06-15T05:18:23.366Z,76.64
2019-06-15T05:19:03.934Z,76.64
2019-06-15T05:19:44.495Z,75.97
2019-06-15T05:20:25.058Z,76.93
2019-06-15T05:21:05.612Z,76.64
2019-06-15T05:21:46.261Z,76.1
2019-06-15T05:22:26.816Z,76.26
2019-06-15T05:23:07.409Z,76.39
2019-06-15T05:23:47.965Z,76.16
2019-06-15T05:24:28.552Z,76.29
2019-06-15T05:25:09.134Z,75.91
2019-06-15T05:25:49.712Z,75.91
2019-06-15T05:26:30.250Z,75.81
2019-06-15T05:27:10.829Z,75.71
2019-06-15T05:27:51.401Z,75.43
2019-06-15T05:28:31.971Z,75.43
2019-06-15T05:29:12.515Z,75.62
2019-06-15T05:29:53.077Z,75.71
2019-06-15T05:30:33.681Z,75.62
2019-06-15T05:31:14.213Z,75.33
2019-06-15T05:31:54.781Z,74.94
2019-06-15T05:32:35.352Z,74.75
2019-06-15T05:33:15.912Z,75.23
2019-06-15T05:33:56.483Z,75.04
2019-06-15T05:34:37.050Z,75.43
2019-06-15T05:35:17.652Z,75.23
2019-06-15T05:35:58.237Z,74.75
2019-06-15T05:36:38.855Z,75.33
2019-06-15T05:37:19.444Z,75.33
2019-06-15T05:38:00.008Z,75.43
2019-06-15T05:38:40.602Z,75.62
2019-06-15T05:39:21.178Z,75.52
2019-06-15T05:40:01.761Z,75.52
2019-06-15T05:41:49.274Z,75.62
2019-06-15T05:42:29.836Z,75.62
2019-06-15T05:43:10.416Z,76.01
2019-06-15T05:43:51.007Z,75.52
2019-06-15T05:44:31.566Z,75.91
2019-06-15T05:45:12.149Z,75.91
2019-06-15T05:45:52.712Z,75.62
2019-06-15T05:46:33.296Z,75.62
2019-06-15T05:47:13.855Z,75.71
2019-06-15T05:47:54.536Z,75.81
2019-06-15T05:48:35.098Z,75.62
2019-06-15T05:49:15.705Z,75.91
2019-06-15T05:49:56.286Z,75.91
2019-06-15T05:50:36.874Z,75.62
2019-06-15T05:51:17.527Z,75.52
2019-06-15T05:51:58.123Z,75.33
2019-06-15T05:52:38.723Z,75.52
2019-06-15T05:53:19.306Z,76.01
2019-06-15T05:53:59.901Z,75.43
2019-06-15T05:54:40.513Z,75.23
2019-06-15T05:55:21.083Z,75.52
2019-06-15T05:56:01.671Z,75.23
2019-06-15T05:56:42.495Z,75.43
2019-06-15T05:57:23.053Z,75.23
2019-06-15T05:58:03.634Z,75.62
2019-06-15T05:58:44.235Z,75.23
2019-06-15T05:59:24.797Z,75.52
2019-06-15T06:00:05.477Z,75.52
2019-06-15T06:00:46.086Z,75.46
2019-06-15T06:01:26.668Z,75.23
2019-06-15T06:02:07.246Z,74.79
2019-06-15T06:02:47.831Z,74.88
2019-06-15T06:03:28.522Z,74.69
2019-06-15T06:04:09.104Z,74.49
2019-06-15T06:04:49.715Z,74.05
2019-06-15T06:05:30.293Z,73.37
2019-06-15T06:06:10.853Z,73.57
2019-06-15T06:06:51.459Z,73.18
2019-06-15T06:07:32.055Z,72.6
2019-06-15T06:08:12.653Z,72.34
2019-06-15T06:08:53.263Z,72.24
2019-06-15T06:09:33.812Z,72.21
2019-06-15T06:10:14.470Z,72.34
2019-06-15T06:13:13.337Z,71.95
2019-06-15T06:13:53.957Z,72.05
2019-06-15T06:14:34.577Z,72.15
2019-06-15T06:15:15.243Z,72.15
2019-06-15T06:15:55.811Z,71.66
2019-06-15T06:16:36.471Z,71.66
2019-06-15T06:17:17.072Z,71.66
2019-06-15T06:17:57.637Z,71.66
2019-06-15T06:18:38.217Z,71.37
2019-06-15T06:19:18.874Z,71.86
2019-06-15T06:19:59.465Z,71.76
2019-06-15T06:20:40.300Z,71.95
2019-06-15T06:21:20.911Z,71.95
2019-06-15T06:22:01.517Z,72.05
2019-06-15T06:22:42.137Z,72.15
2019-06-15T06:23:22.741Z,71.66
2019-06-15T06:24:03.317Z,71.86
2019-06-15T06:24:43.945Z,70.89
2019-06-15T06:25:24.514Z,71.28
2019-06-15T06:26:05.111Z,71.08
2019-06-15T06:26:45.673Z,71.12
2019-06-15T06:27:36.026Z,71.12
2019-06-15T06:28:06.946Z,71.22
2019-06-15T06:28:56.731Z,70.25
2019-06-15T06:29:28.113Z,70.63
2019-06-15T06:30:08.670Z,71.22
2019-06-15T06:30:49.263Z,70.76
2019-06-15T06:31:29.841Z,70.37
2019-06-15T06:32:10.418Z,69.7
2019-06-15T06:32:51.003Z,69.7
2019-06-15T06:33:31.611Z,69.6
2019-06-15T06:34:12.196Z,68.63
2019-06-15T06:34:52.932Z,68.44
2019-06-15T06:35:33.797Z,68.44
2019-06-15T06:36:14.626Z,68.54
2019-06-15T06:36:55.213Z,68.54
2019-06-15T06:37:36.272Z,68.34
2019-06-15T06:38:16.809Z,69.34
2019-06-15T06:38:57.378Z,69.5
2019-06-15T06:39:37.939Z,68.66
2019-06-15T06:40:18.578Z,68.18
2019-06-15T06:40:59.440Z,68.37
2019-06-15T06:41:40.547Z,68.47
2019-06-15T06:42:23.166Z,68.66
2019-06-15T06:43:04.637Z,67.4
2019-06-15T06:43:47.202Z,67.44
2019-06-15T06:44:28.423Z,67.54
2019-06-15T06:45:09.442Z,67.92
2019-06-15T06:45:50.127Z,67.24
2019-06-15T06:46:30.743Z,67.24
2019-06-15T06:47:11.586Z,66.86
2019-06-15T06:47:52.178Z,67.05
2019-06-15T06:48:32.978Z,66.66
2019-06-15T06:49:13.740Z,66.76
2019-06-15T06:52:28.264Z,65.72
2019-06-15T06:53:09.165Z,65.72
2019-06-15T06:53:50.111Z,65.72
2019-06-15T06:54:32.286Z,65.72
2019-06-15T06:55:13.549Z,65.72
2019-06-15T06:55:54.360Z,65.53
2019-06-15T06:56:35.316Z,66.17
2019-06-15T06:57:16.183Z,66.17
2019-06-15T06:57:57.532Z,65.89
2019-06-15T06:58:39.958Z,65.98
2019-06-15T06:59:20.552Z,65.79
2019-06-15T07:00:01.682Z,65.72
2019-06-15T07:00:42.505Z,65.2
2019-06-15T07:01:23.111Z,65.69
2019-06-15T07:02:04.159Z,65.59
2019-06-15T07:02:44.927Z,65.69
2019-06-15T07:03:26.224Z,65.69
2019-06-15T07:04:07.146Z,66.08
2019-06-15T07:04:48.110Z,65.98
2019-06-15T07:05:29.207Z,66.66
2019-06-15T07:06:09.802Z,66.86
2019-06-15T07:06:50.957Z,66.27
2019-06-15T07:07:32.580Z,66.66
2019-06-15T07:08:13.469Z,66.63
2019-06-15T07:08:54.662Z,67.02
2019-06-15T07:09:36.237Z,67.02
2019-06-15T07:10:17.916Z,66.82
2019-06-15T07:10:58.888Z,67.21
2019-06-15T07:11:39.717Z,67.31
2019-06-15T07:14:54.328Z,67.6
2019-06-15T07:15:34.896Z,67.79
2019-06-15T07:16:15.477Z,68.28
2019-06-15T07:16:56.073Z,67.69
2019-06-15T07:17:36.642Z,67.69
2019-06-15T07:18:17.244Z,67.89
2019-06-15T07:18:57.766Z,68.28
2019-06-15T07:19:38.663Z,68.47
2019-06-15T07:20:19.707Z,68.37
2019-06-15T07:21:00.524Z,68.37
2019-06-15T07:21:41.102Z,68.37
2019-06-15T07:22:21.674Z,68.76
2019-06-15T07:23:02.221Z,68.96
2019-06-15T07:23:42.804Z,68.28
2019-06-15T07:24:23.390Z,67.89
2019-06-15T07:25:03.987Z,67.89
2019-06-15T07:25:44.618Z,67.89
2019-06-15T07:26:25.191Z,67.89
2019-06-15T07:27:05.753Z,68.08
2019-06-15T07:27:46.344Z,67.89
2019-06-15T07:28:26.909Z,68.08
2019-06-15T07:29:07.486Z,67.89
2019-06-15T07:29:48.091Z,68.57
2019-06-15T07:30:28.705Z,68.47
2019-06-15T07:31:09.226Z,68.28
2019-06-15T07:31:49.803Z,68.28
2019-06-15T07:32:30.390Z,68.28
2019-06-15T07:33:10.989Z,68.28
2019-06-15T07:33:51.576Z,68.37
2019-06-15T07:34:32.131Z,68.37
2019-06-15T07:35:12.715Z,68.37
2019-06-15T07:35:53.289Z,67.99
2019-06-15T07:36:33.847Z,67.89
2019-06-15T07:37:14.433Z,68.08
2019-06-15T07:37:55.015Z,68.18
2019-06-15T07:38:35.567Z,68.08
2019-06-15T07:39:16.175Z,68.08
2019-06-15T07:39:56.774Z,68.66
2019-06-15T07:40:37.356Z,68.57
2019-06-15T07:41:17.938Z,68.08
2019-06-15T07:41:58.549Z,68.08
2019-06-15T07:42:39.580Z,68.18
2019-06-15T07:43:19.701Z,68.37
2019-06-15T07:44:00.256Z,68.47
2019-06-15T07:44:40.884Z,68.66
2019-06-15T07:45:21.440Z,68.47
2019-06-15T07:46:02.014Z,68.41
2019-06-15T07:46:42.671Z,68.21
2019-06-15T07:47:23.217Z,67.34
2019-06-15T07:48:03.806Z,67.05
2019-06-15T07:48:44.345Z,67.24
2019-06-15T07:49:24.976Z,66.79
2019-06-15T07:50:05.666Z,66.11
2019-06-15T07:50:46.688Z,65.53
2019-06-15T07:51:29.230Z,65.72
2019-06-15T07:52:10.113Z,66.3
2019-06-15T07:52:51.096Z,65.95
2019-06-15T07:53:32.501Z,65.56
2019-06-15T07:54:13.668Z,65.17
2019-06-15T07:54:54.348Z,65.08
2019-06-15T07:55:35.735Z,64.78
2019-06-15T07:56:16.674Z,65.56
2019-06-15T07:56:57.856Z,64.98
2019-06-15T07:57:38.931Z,65.17
2019-06-15T07:58:24.410Z,65.4
2019-06-15T07:59:00.851Z,65.2
2019-06-15T07:59:42.432Z,65.59
2019-06-15T08:00:23.329Z,64.81
2019-06-15T08:01:04.023Z,64.43
2019-06-15T08:01:44.815Z,64.62
2019-06-15T08:02:25.437Z,63.75
2019-06-15T08:03:06.014Z,63.59
2019-06-15T08:03:46.714Z,63.78
2019-06-15T08:04:27.732Z,63.2
2019-06-15T08:05:08.977Z,63.49
2019-06-15T08:05:49.990Z,63.2
2019-06-15T08:06:30.989Z,63.07
2019-06-15T08:07:12.209Z,63.49
2019-06-15T08:07:54.329Z,63.49
2019-06-15T08:11:08.546Z,63.29
2019-06-15T08:11:49.181Z,62.41
2019-06-15T08:12:30.463Z,62.23
2019-06-15T08:13:11.477Z,61.93
2019-06-15T08:13:52.065Z,62.13
2019-06-15T08:14:32.645Z,62.03
2019-06-15T08:15:14.115Z,61.74
2019-06-15T08:15:55.085Z,62.13
2019-06-15T08:16:35.647Z,61.93
2019-06-15T08:17:16.367Z,62.32
2019-06-15T08:17:57.070Z,62.03
2019-06-15T08:18:37.843Z,62.77
2019-06-15T08:21:36.817Z,63.36
2019-06-15T08:22:17.402Z,64.23
2019-06-15T08:22:58.053Z,64.23
2019-06-15T08:23:38.698Z,64.04
2019-06-15T08:24:19.458Z,64.43
2019-06-15T08:25:00.044Z,64.14
2019-06-15T08:25:40.667Z,63.84
2019-06-15T08:26:21.208Z,64.33
2019-06-15T08:27:01.834Z,64.43
2019-06-15T08:27:42.394Z,63.68
2019-06-15T08:28:22.994Z,63.29
2019-06-15T08:29:03.578Z,63.1
2019-06-15T08:29:44.178Z,63.2
2019-06-15T08:30:24.766Z,63.29
2019-06-15T08:31:05.366Z,63.39
2019-06-15T08:31:45.906Z,62.9
2019-06-15T08:32:26.465Z,63.2
2019-06-15T08:33:07.154Z,62.61
2019-06-15T08:33:47.751Z,62.9
2019-06-15T08:34:28.328Z,62.41
2019-06-15T08:35:08.891Z,62.51
2019-06-15T08:35:49.463Z,62.23
2019-06-15T08:36:30.243Z,62.81
2019-06-15T08:37:10.836Z,62.81
2019-06-15T08:37:51.409Z,63.1
2019-06-15T08:38:31.978Z,63.39
2019-06-15T08:39:12.570Z,63.2
2019-06-15T08:39:53.199Z,63.78
2019-06-15T08:40:33.791Z,63.29
2019-06-15T08:41:14.340Z,63.49
2019-06-15T08:41:56.852Z,63.49
2019-06-15T08:42:35.466Z,63.78
2019-06-15T08:43:16.033Z,63.78
2019-06-15T08:43:56.592Z,63.59
2019-06-15T08:44:37.168Z,63.42
2019-06-15T08:45:17.723Z,63.62
2019-06-15T08:45:58.297Z,63.13
2019-06-15T08:46:38.976Z,62.93
2019-06-15T08:47:19.563Z,62.54
2019-06-15T08:48:00.134Z,62.54
2019-06-15T08:48:40.686Z,62.74
2019-06-15T08:49:21.274Z,62.74
2019-06-15T08:50:01.881Z,61.96
2019-06-15T08:50:42.460Z,62.16
2019-06-15T08:51:23.022Z,62.06
2019-06-15T08:52:04.377Z,61.96
2019-06-15T08:52:44.205Z,62.26
2019-06-15T08:53:24.775Z,61.87
2019-06-15T08:54:05.350Z,61.08
2019-06-15T08:54:45.907Z,62.09
2019-06-15T08:55:26.479Z,61.57
2019-06-15T08:56:07.096Z,61.18
2019-06-15T08:56:47.647Z,61.18
2019-06-15T08:57:29.195Z,60.5
2019-06-15T08:58:11.238Z,60.5
2019-06-15T08:58:55.677Z,61.18
2019-06-15T08:59:35.980Z,61.77
2019-06-15T09:00:17.095Z,61.96
2019-06-15T09:00:57.671Z,62.45
2019-06-15T09:01:38.892Z,61.57
2019-06-15T09:02:19.485Z,61.77
2019-06-15T09:03:00.030Z,61.9
2019-06-15T09:03:40.765Z,61.6
2019-06-15T09:04:21.338Z,61.99
2019-06-15T09:05:01.911Z,61.21
2019-06-15T09:05:42.520Z,61.21
2019-06-15T09:06:23.122Z,61.6
2019-06-15T09:07:03.687Z,61.38
2019-06-15T09:07:44.259Z,61.28
2019-06-15T09:08:24.825Z,61.9